Quill Lake, Canada
Current Conditions -  °F | °C
As of 12:00 PM on Monday 26 Jan 2015 (Local Time) from CYBU Reporting Station
Overcast Overcast  
Wind Chill: 28°   Ceiling: 14000
Heat Index: 34°   Visibility: 9mi
Dew Point: 30°   Wind: 7mph
Humidity: 87%   Direction: 220°SW
Pressure: 29.83"   Gusts: NA
Location:  52.07°N, 104.25°W
Report Text: CYBU 261800Z AUTO 22006KT 9SM OVC140 01/M01 A2983 RMK SLP117
Loading
Personal Weather Stations






























Interactive Weather Map New forecast layout! Learn more

10-Day Weather Forecast

Advertisements
Track Severe Weather on mobile